createdAt,value
2023-02-17T00:01:34.637Z,3.04
2023-02-17T00:04:03.126Z,2.82
2023-02-17T00:06:32.641Z,3.23
2023-02-17T00:09:02.121Z,3.07
2023-02-17T00:11:30.691Z,3.46
2023-02-17T00:14:00.823Z,2.82
2023-02-17T00:16:29.544Z,2.59
2023-02-17T00:19:01.960Z,2.74
2023-02-17T00:21:32.006Z,2.83
2023-02-17T00:24:00.582Z,3.16
2023-02-17T00:26:28.643Z,3.54
2023-02-17T00:28:58.599Z,3.20
2023-02-17T00:31:27.181Z,2.49
2023-02-17T00:33:56.221Z,2.68
2023-02-17T00:36:25.257Z,2.61
2023-02-17T00:38:55.754Z,3.06
2023-02-17T00:41:25.028Z,3.66
2023-02-17T00:43:53.481Z,3.40
2023-02-17T00:46:22.994Z,2.05
2023-02-17T00:48:53.449Z,2.44
2023-02-17T00:51:21.989Z,2.53
2023-02-17T00:53:50.497Z,2.41
2023-02-17T00:56:18.677Z,2.66
2023-02-17T00:58:47.186Z,3.00
2023-02-17T01:01:16.046Z,3.21
2023-02-17T01:03:44.229Z,3.00
2023-02-17T01:06:22.273Z,3.15
2023-02-17T01:08:50.665Z,2.59
2023-02-17T01:11:26.380Z,2.81
2023-02-17T01:13:54.920Z,2.32
2023-02-17T01:16:26.212Z,2.40
2023-02-17T01:18:54.546Z,2.60
2023-02-17T01:21:25.100Z,2.59
2023-02-17T01:23:55.819Z,2.70
2023-02-17T01:26:25.599Z,2.82
2023-02-17T01:28:55.110Z,3.04
2023-02-17T01:31:24.201Z,2.75
2023-02-17T01:33:52.379Z,3.11
2023-02-17T01:36:21.400Z,3.74
2023-02-17T01:38:49.518Z,3.00
2023-02-17T01:41:20.945Z,3.25
2023-02-17T01:44:14.314Z,3.12
2023-02-17T01:46:45.120Z,2.99
2023-02-17T01:49:20.695Z,3.34
2023-02-17T01:51:53.434Z,3.54
2023-02-17T01:54:27.581Z,3.51
2023-02-17T01:56:56.592Z,4.25
2023-02-17T01:59:25.037Z,4.20
2023-02-17T02:01:55.968Z,4.26
2023-02-17T02:04:26.810Z,4.50
2023-02-17T02:06:54.954Z,4.91
2023-02-17T02:09:28.470Z,4.98
2023-02-17T02:12:00.353Z,5.15
2023-02-17T02:14:32.465Z,4.80
2023-02-17T02:17:26.866Z,4.72
2023-02-17T02:20:26.535Z,5.19
2023-02-17T02:23:33.327Z,4.91
2023-02-17T02:26:16.554Z,4.95
2023-02-17T02:29:12.665Z,4.74
2023-02-17T02:32:17.855Z,4.44
2023-02-17T02:34:48.831Z,3.45
2023-02-17T02:37:54.258Z,4.20
2023-02-17T02:40:24.989Z,4.12
2023-02-17T02:42:54.913Z,4.18
2023-02-17T02:45:23.492Z,4.43
2023-02-17T02:47:54.170Z,4.26
2023-02-17T02:50:37.825Z,4.60
2023-02-17T02:53:13.136Z,3.33
2023-02-17T02:55:53.807Z,3.47
2023-02-17T02:58:45.839Z,3.57
2023-02-17T03:01:28.804Z,3.28
2023-02-17T03:04:11.171Z,3.46
2023-02-17T03:06:57.133Z,3.36
2023-02-17T03:09:27.017Z,3.29
2023-02-17T03:11:57.192Z,3.33
2023-02-17T03:14:27.095Z,3.17
2023-02-17T03:16:55.701Z,3.45
2023-02-17T03:19:25.828Z,3.46
2023-02-17T03:22:05.783Z,2.69
2023-02-17T03:24:34.702Z,2.55
2023-02-17T03:27:03.128Z,2.70
2023-02-17T03:29:31.253Z,2.71
2023-02-17T03:31:59.886Z,2.66
2023-02-17T03:34:28.160Z,2.80
2023-02-17T03:36:56.248Z,2.68
2023-02-17T03:39:24.625Z,2.72
2023-02-17T03:41:52.745Z,2.54
2023-02-17T03:44:21.068Z,2.99
2023-02-17T03:46:50.125Z,3.03
2023-02-17T03:49:18.249Z,2.81
2023-02-17T03:51:46.295Z,2.55
2023-02-17T03:54:14.786Z,2.54
2023-02-17T03:56:42.886Z,2.75
2023-02-17T03:59:10.997Z,2.95
2023-02-17T04:01:39.498Z,2.99
2023-02-17T04:04:07.945Z,2.91
2023-02-17T04:06:36.082Z,3.12
2023-02-17T04:09:04.372Z,3.22
2023-02-17T04:11:32.890Z,3.35
2023-02-17T04:14:00.970Z,3.14
2023-02-17T04:16:29.018Z,3.07
2023-02-17T04:18:57.572Z,3.27
2023-02-17T04:21:26.155Z,3.52
2023-02-17T04:23:55.460Z,3.76
2023-02-17T04:26:23.943Z,3.54
2023-02-17T04:28:52.044Z,3.04
2023-02-17T04:31:20.216Z,2.89
2023-02-17T04:33:48.932Z,3.26
2023-02-17T04:36:16.946Z,2.85
2023-02-17T04:38:45.070Z,3.32
2023-02-17T04:41:13.561Z,3.14
2023-02-17T04:43:41.689Z,2.72
2023-02-17T04:46:12.133Z,3.03
2023-02-17T04:48:40.558Z,2.95
2023-02-17T04:51:08.824Z,2.54
2023-02-17T04:53:37.129Z,2.82
2023-02-17T04:56:06.464Z,2.75
2023-02-17T04:58:34.752Z,2.63
2023-02-17T05:01:02.799Z,2.30
2023-02-17T05:03:31.358Z,2.30
2023-02-17T05:05:59.549Z,3.00
2023-02-17T05:08:27.740Z,3.57
2023-02-17T05:10:56.253Z,3.23
2023-02-17T05:13:24.486Z,3.50
2023-02-17T05:15:52.658Z,3.07
2023-02-17T05:18:21.133Z,3.00
2023-02-17T05:20:49.173Z,3.03
2023-02-17T05:23:17.468Z,2.05
2023-02-17T05:25:46.211Z,2.62
2023-02-17T05:28:14.308Z,2.70
2023-02-17T05:30:42.412Z,2.91
2023-02-17T05:33:11.976Z,2.95
2023-02-17T05:35:40.570Z,2.60
2023-02-17T05:38:08.630Z,2.98
2023-02-17T05:40:37.031Z,3.14
2023-02-17T05:43:05.023Z,2.81
2023-02-17T05:45:33.183Z,2.58
2023-02-17T05:48:01.679Z,2.63
2023-02-17T05:50:29.794Z,3.13
2023-02-17T05:53:03.777Z,3.47
2023-02-17T05:55:32.510Z,3.22
2023-02-17T05:58:00.800Z,3.56
2023-02-17T06:00:30.418Z,3.03
2023-02-17T06:02:59.006Z,3.40
2023-02-17T06:05:27.127Z,3.55
2023-02-17T06:07:55.393Z,3.79
2023-02-17T06:10:24.019Z,3.99
2023-02-17T06:12:52.188Z,3.59
2023-02-17T06:15:20.247Z,3.15
2023-02-17T06:17:48.946Z,3.73
2023-02-17T06:20:17.318Z,3.58
2023-02-17T06:22:45.546Z,3.98
2023-02-17T06:25:14.059Z,4.05
2023-02-17T06:27:44.447Z,3.61
2023-02-17T06:30:13.235Z,4.50
2023-02-17T06:32:41.768Z,4.18
2023-02-17T06:35:09.886Z,3.93
2023-02-17T06:37:37.945Z,3.84
2023-02-17T06:40:07.135Z,3.94
2023-02-17T06:42:35.263Z,4.03
2023-02-17T06:45:06.277Z,3.96
2023-02-17T06:47:35.164Z,3.91
2023-02-17T06:50:03.359Z,3.36
2023-02-17T06:52:31.959Z,3.83
2023-02-17T06:55:00.446Z,4.27
2023-02-17T06:57:28.759Z,4.70
2023-02-17T06:59:56.858Z,5.56
2023-02-17T07:02:25.496Z,5.40
2023-02-17T07:04:54.471Z,5.27
2023-02-17T07:07:22.611Z,4.92
2023-02-17T07:09:50.996Z,4.94
2023-02-17T07:12:20.831Z,5.01
2023-02-17T07:14:48.977Z,5.82
2023-02-17T07:17:17.470Z,5.36
2023-02-17T07:19:45.555Z,5.23
2023-02-17T07:22:13.655Z,4.79
2023-02-17T07:24:42.169Z,5.09
2023-02-17T07:27:10.928Z,4.97
2023-02-17T07:29:39.401Z,5.61
2023-02-17T07:32:07.864Z,5.47
2023-02-17T07:34:36.231Z,5.12
2023-02-17T07:37:04.297Z,5.16
2023-02-17T07:39:32.936Z,5.22
2023-02-17T07:42:01.363Z,5.59
2023-02-17T07:44:29.451Z,5.64
2023-02-17T07:46:59.863Z,6.60
2023-02-17T07:49:28.012Z,7.38
2023-02-17T07:51:56.171Z,7.10
2023-02-17T07:54:24.745Z,7.30
2023-02-17T07:56:52.940Z,7.38
2023-02-17T07:59:22.342Z,7.97
2023-02-17T08:01:50.987Z,8.44
2023-02-17T08:04:19.604Z,7.61
2023-02-17T08:06:49.572Z,7.39
2023-02-17T08:09:36.270Z,7.44
2023-02-17T08:12:22.982Z,7.72
2023-02-17T08:14:51.074Z,8.10
2023-02-17T08:17:19.586Z,8.84
2023-02-17T08:19:49.246Z,9.05
2023-02-17T08:22:18.511Z,9.35
2023-02-17T08:24:47.206Z,10.37
2023-02-17T08:27:15.743Z,10.40
2023-02-17T08:29:44.359Z,10.29
2023-02-17T08:32:13.940Z,10.67
2023-02-17T08:34:42.308Z,11.26
2023-02-17T08:37:12.053Z,11.18
2023-02-17T08:39:40.612Z,11.60
2023-02-17T08:42:08.749Z,11.77
2023-02-17T08:44:37.521Z,12.01
2023-02-17T08:47:07.904Z,11.84
2023-02-17T08:49:37.139Z,12.08
2023-02-17T08:52:05.882Z,11.75
2023-02-17T08:54:34.632Z,11.17
2023-02-17T08:57:04.905Z,11.35
2023-02-17T08:59:33.387Z,11.29
2023-02-17T09:02:01.683Z,10.31
2023-02-17T09:04:29.911Z,10.53
2023-02-17T09:06:58.708Z,10.17
2023-02-17T09:09:27.474Z,10.38
2023-02-17T09:11:57.175Z,10.61
2023-02-17T09:14:25.875Z,11.00
2023-02-17T09:16:55.175Z,11.09
2023-02-17T09:19:24.214Z,10.86
2023-02-17T09:21:53.230Z,11.70
2023-02-17T09:24:21.471Z,11.80
2023-02-17T09:26:49.736Z,12.41
2023-02-17T09:29:18.430Z,12.63
2023-02-17T09:31:46.970Z,13.07
2023-02-17T09:34:15.610Z,12.74
2023-02-17T09:36:44.427Z,12.75
2023-02-17T09:39:14.491Z,12.89
2023-02-17T09:41:52.246Z,12.39
2023-02-17T09:44:34.099Z,12.15
2023-02-17T09:47:10.476Z,11.80
2023-02-17T09:49:48.089Z,11.37
2023-02-17T09:52:36.316Z,11.36
2023-02-17T09:55:39.024Z,11.57
2023-02-17T09:58:19.094Z,10.67
2023-02-17T10:01:02.822Z,11.00
2023-02-17T10:03:46.486Z,10.95
2023-02-17T10:06:24.847Z,10.97
2023-02-17T10:09:13.031Z,10.95
2023-02-17T10:12:10.114Z,11.15
2023-02-17T10:14:42.780Z,11.34
2023-02-17T10:17:38.177Z,11.87
2023-02-17T10:20:11.610Z,11.93
2023-02-17T10:22:46.089Z,11.60
2023-02-17T10:25:21.388Z,11.45
2023-02-17T10:28:01.535Z,11.78
2023-02-17T10:31:07.100Z,11.06
2023-02-17T10:33:52.971Z,11.52
2023-02-17T10:36:59.046Z,11.69
2023-02-17T10:39:45.252Z,11.54
2023-02-17T10:42:25.997Z,12.00
2023-02-17T10:45:01.418Z,12.13
2023-02-17T10:47:30.641Z,11.52
2023-02-17T10:50:03.005Z,11.99
2023-02-17T10:52:38.571Z,12.29
2023-02-17T10:55:22.912Z,11.87
2023-02-17T10:58:03.017Z,12.26
2023-02-17T11:00:31.484Z,12.19
2023-02-17T11:03:00.360Z,12.12
2023-02-17T11:05:32.811Z,12.10
2023-02-17T11:08:05.629Z,12.06
2023-02-17T11:10:36.455Z,11.89
2023-02-17T11:13:20.190Z,11.67
2023-02-17T11:15:50.031Z,11.91
2023-02-17T11:18:22.766Z,11.85
2023-02-17T11:21:14.594Z,11.73
2023-02-17T11:23:53.046Z,11.51
2023-02-17T11:26:27.994Z,12.18
2023-02-17T11:29:09.872Z,11.85
2023-02-17T11:31:38.368Z,12.03
2023-02-17T11:34:23.818Z,12.16
2023-02-17T11:37:03.088Z,12.22
2023-02-17T11:39:31.711Z,11.90
2023-02-17T11:41:59.955Z,12.15
2023-02-17T11:44:30.151Z,12.14
2023-02-17T11:47:33.777Z,12.18
2023-02-17T11:50:40.073Z,12.18
2023-02-17T11:53:27.765Z,12.03
2023-02-17T11:56:23.139Z,12.62
2023-02-17T11:58:51.601Z,12.23
2023-02-17T12:01:41.011Z,12.00
2023-02-17T12:04:30.947Z,11.72
2023-02-17T12:07:27.114Z,11.79
2023-02-17T12:10:23.559Z,11.70
2023-02-17T12:13:22.738Z,11.86
2023-02-17T12:16:13.405Z,11.62
2023-02-17T12:19:04.104Z,11.50
2023-02-17T12:21:50.702Z,11.62
2023-02-17T12:24:42.728Z,11.75
2023-02-17T12:27:14.392Z,11.36
2023-02-17T12:30:09.390Z,11.99
2023-02-17T12:33:03.826Z,12.15
2023-02-17T12:38:22.096Z,12.65
2023-02-17T12:41:04.334Z,12.44
2023-02-17T12:43:39.087Z,12.51
2023-02-17T12:46:15.700Z,12.81
2023-02-17T12:49:11.795Z,13.03
2023-02-17T12:51:48.404Z,12.70
2023-02-17T12:54:24.174Z,13.01
2023-02-17T12:57:13.217Z,12.31
2023-02-17T12:59:46.216Z,12.87
2023-02-17T13:02:16.032Z,12.96
2023-02-17T13:04:46.129Z,13.01
2023-02-17T13:07:34.186Z,12.99
2023-02-17T13:10:04.130Z,12.61
2023-02-17T13:12:40.735Z,13.11
2023-02-17T13:15:32.214Z,12.93
2023-02-17T13:18:13.262Z,12.89
2023-02-17T13:20:52.653Z,12.70
2023-02-17T13:23:37.778Z,12.83
2023-02-17T13:26:09.184Z,12.63
2023-02-17T13:28:39.745Z,12.48
2023-02-17T13:31:23.256Z,12.00
2023-02-17T13:33:53.472Z,12.70
2023-02-17T13:36:35.230Z,12.63
2023-02-17T13:39:08.620Z,12.39
2023-02-17T13:41:50.267Z,12.80
2023-02-17T13:44:32.754Z,12.71
2023-02-17T13:47:08.195Z,12.77
2023-02-17T13:49:38.186Z,13.01
2023-02-17T13:52:16.020Z,13.79
2023-02-17T13:54:59.432Z,13.37
2023-02-17T13:57:30.406Z,13.62
2023-02-17T14:00:13.848Z,12.78
2023-02-17T14:02:54.235Z,13.08
2023-02-17T14:05:45.144Z,13.33
2023-02-17T14:08:22.658Z,13.13
2023-02-17T14:10:56.344Z,13.28
2023-02-17T14:13:25.058Z,12.63
2023-02-17T14:16:01.667Z,12.70
2023-02-17T14:18:42.358Z,12.76
2023-02-17T14:21:13.323Z,12.58
2023-02-17T14:23:50.071Z,13.20
2023-02-17T14:26:47.404Z,13.17
2023-02-17T14:29:16.350Z,12.86
2023-02-17T14:31:52.694Z,12.44
2023-02-17T14:34:20.843Z,12.37
2023-02-17T14:36:49.794Z,12.53
2023-02-17T14:39:17.992Z,12.49
2023-02-17T14:41:46.382Z,12.93
2023-02-17T14:44:14.840Z,12.74
2023-02-17T14:46:46.485Z,12.82
2023-02-17T14:49:15.114Z,12.13
2023-02-17T14:51:43.440Z,12.81
2023-02-17T14:54:15.793Z,12.66
2023-02-17T14:56:48.067Z,12.07
2023-02-17T14:59:16.197Z,12.55
2023-02-17T15:01:44.917Z,12.94
2023-02-17T15:04:16.628Z,13.29
2023-02-17T15:06:48.467Z,12.68
2023-02-17T15:09:19.141Z,12.78
2023-02-17T15:11:49.416Z,13.10
2023-02-17T15:14:20.485Z,13.17
2023-02-17T15:16:49.688Z,13.06
2023-02-17T15:19:20.850Z,12.26
2023-02-17T15:21:51.178Z,12.39
2023-02-17T15:24:30.536Z,12.38
2023-02-17T15:27:03.930Z,12.63
2023-02-17T15:29:32.367Z,12.60
2023-02-17T15:32:02.493Z,13.48
2023-02-17T15:34:33.118Z,13.22
2023-02-17T15:37:02.106Z,13.64
2023-02-17T15:39:30.285Z,13.17
2023-02-17T15:42:02.465Z,12.64
2023-02-17T15:44:39.748Z,12.66
2023-02-17T15:47:21.245Z,12.47
2023-02-17T15:49:50.038Z,12.08
2023-02-17T15:52:18.195Z,12.00
2023-02-17T15:54:50.246Z,12.12
2023-02-17T15:57:24.029Z,11.99
2023-02-17T15:59:55.403Z,12.16
2023-02-17T16:02:25.557Z,12.11
2023-02-17T16:04:54.142Z,11.61
2023-02-17T16:07:24.329Z,11.58
2023-02-17T16:09:52.626Z,12.41
2023-02-17T16:12:28.226Z,12.33
2023-02-17T16:14:57.131Z,11.89
2023-02-17T16:17:27.696Z,11.32
2023-02-17T16:19:55.917Z,11.73
2023-02-17T16:22:24.177Z,11.52
2023-02-17T16:24:52.754Z,11.54
2023-02-17T16:27:20.907Z,11.66
2023-02-17T16:29:49.146Z,11.55
2023-02-17T16:32:18.152Z,11.70
2023-02-17T16:34:47.299Z,11.51
2023-02-17T16:37:17.883Z,11.75
2023-02-17T16:39:46.773Z,11.82
2023-02-17T16:42:16.988Z,11.89
2023-02-17T16:44:45.194Z,11.26
2023-02-17T16:47:24.376Z,11.09
2023-02-17T16:49:53.036Z,11.32
2023-02-17T16:52:27.744Z,11.10
2023-02-17T16:54:56.054Z,11.42
2023-02-17T16:57:24.716Z,10.98
2023-02-17T16:59:52.970Z,11.35
2023-02-17T17:02:21.945Z,11.47
2023-02-17T17:04:50.508Z,11.46
2023-02-17T17:07:18.635Z,11.58
2023-02-17T17:10:06.989Z,11.45
2023-02-17T17:12:35.184Z,11.36
2023-02-17T17:15:03.845Z,11.66
2023-02-17T17:17:46.351Z,11.57
2023-02-17T17:20:32.202Z,11.52
2023-02-17T17:23:06.354Z,11.27
2023-02-17T17:25:39.658Z,11.37
2023-02-17T17:28:08.469Z,11.13
2023-02-17T17:30:37.502Z,10.95
2023-02-17T17:33:05.748Z,11.01
2023-02-17T17:35:33.851Z,10.66
2023-02-17T17:38:02.598Z,10.49
2023-02-17T17:40:48.792Z,10.67
2023-02-17T17:43:20.480Z,10.67
2023-02-17T17:45:50.083Z,10.92
2023-02-17T17:48:20.588Z,10.89
2023-02-17T17:50:51.356Z,10.66
2023-02-17T17:53:19.775Z,10.57
2023-02-17T17:55:48.459Z,10.73
2023-02-17T17:58:17.469Z,10.76
2023-02-17T18:00:45.861Z,10.70
2023-02-17T18:03:14.664Z,10.78
2023-02-17T18:05:42.769Z,11.07
2023-02-17T18:08:11.115Z,11.00
2023-02-17T18:10:40.610Z,10.90
2023-02-17T18:13:09.548Z,10.99
2023-02-17T18:15:37.713Z,11.01
2023-02-17T18:18:06.147Z,10.81
2023-02-17T18:20:34.116Z,10.72
2023-02-17T18:23:02.247Z,10.89
2023-02-17T18:25:31.151Z,11.01
2023-02-17T18:27:59.336Z,11.08
2023-02-17T18:30:27.939Z,11.18
2023-02-17T18:32:56.320Z,11.30
2023-02-17T18:35:24.545Z,11.63
2023-02-17T18:37:52.560Z,11.39
2023-02-17T18:40:22.175Z,11.32
2023-02-17T18:42:50.129Z,11.45
2023-02-17T18:45:18.355Z,11.45
2023-02-17T18:47:47.766Z,11.79
2023-02-17T18:50:16.472Z,11.42
2023-02-17T18:52:44.674Z,11.58
2023-02-17T18:55:13.384Z,11.88
2023-02-17T18:57:43.197Z,11.70
2023-02-17T19:00:13.451Z,11.83
2023-02-17T19:02:41.849Z,11.54
2023-02-17T19:05:11.175Z,11.78
2023-02-17T19:07:39.314Z,12.05
2023-02-17T19:10:08.383Z,12.25
2023-02-17T19:12:37.728Z,12.11
2023-02-17T19:15:06.821Z,12.32
2023-02-17T19:17:35.390Z,12.06
2023-02-17T19:20:04.072Z,12.25
2023-02-17T19:22:35.751Z,11.97
2023-02-17T19:25:04.696Z,12.14
2023-02-17T19:27:32.679Z,12.36
2023-02-17T19:30:00.841Z,12.13
2023-02-17T19:32:29.332Z,12.08
2023-02-17T19:34:57.283Z,11.92
2023-02-17T19:37:25.252Z,12.09
2023-02-17T19:39:53.772Z,11.77
2023-02-17T19:42:21.862Z,12.08
2023-02-17T19:44:49.810Z,12.27
2023-02-17T19:47:18.344Z,12.17
2023-02-17T19:49:46.266Z,12.16
2023-02-17T19:52:14.330Z,12.00
2023-02-17T19:54:42.783Z,12.24
2023-02-17T19:57:10.847Z,12.28
2023-02-17T19:59:38.876Z,12.24
2023-02-17T20:02:07.202Z,12.00
2023-02-17T20:04:35.597Z,12.19
2023-02-17T20:07:03.645Z,12.51
2023-02-17T20:09:32.367Z,12.17
2023-02-17T20:12:00.754Z,12.48
2023-02-17T20:14:28.774Z,12.31
2023-02-17T20:16:56.787Z,11.99
2023-02-17T20:19:25.244Z,12.05
2023-02-17T20:21:53.155Z,11.84
2023-02-17T20:24:21.207Z,11.94
2023-02-17T20:26:51.331Z,12.12
2023-02-17T20:29:19.693Z,12.25
2023-02-17T20:31:47.959Z,12.01
2023-02-17T20:34:39.399Z,11.75
2023-02-17T20:37:08.356Z,11.51
2023-02-17T20:39:37.008Z,11.72
2023-02-17T20:42:05.326Z,11.98
2023-02-17T20:44:33.524Z,11.83
2023-02-17T20:47:02.151Z,11.83
2023-02-17T20:49:30.229Z,11.81
2023-02-17T20:51:58.121Z,11.70
2023-02-17T20:54:27.310Z,11.64
2023-02-17T20:56:57.869Z,11.82
2023-02-17T20:59:26.440Z,11.71
2023-02-17T21:01:54.662Z,11.84
2023-02-17T21:04:23.219Z,11.81
2023-02-17T21:06:51.925Z,11.53
2023-02-17T21:09:20.044Z,11.90
2023-02-17T21:11:48.161Z,11.78
2023-02-17T21:14:16.734Z,11.95
2023-02-17T21:16:45.156Z,11.80
2023-02-17T21:19:13.226Z,11.49
2023-02-17T21:21:41.598Z,11.61
2023-02-17T21:24:09.596Z,11.45
2023-02-17T21:26:37.807Z,11.55
2023-02-17T21:29:06.386Z,11.71
2023-02-17T21:31:34.489Z,11.60
2023-02-17T21:34:10.039Z,11.48
2023-02-17T21:36:40.678Z,11.57
2023-02-17T21:39:08.670Z,11.66
2023-02-17T21:41:36.761Z,11.71
2023-02-17T21:44:28.167Z,11.62
2023-02-17T21:46:56.222Z,11.94
2023-02-17T21:49:25.053Z,11.97
2023-02-17T21:51:53.251Z,11.79
2023-02-17T21:54:21.286Z,11.61
2023-02-17T21:56:49.989Z,11.53
2023-02-17T21:59:18.036Z,11.68
2023-02-17T22:01:46.116Z,11.76
2023-02-17T22:04:14.715Z,11.77
2023-02-17T22:06:43.248Z,11.63
2023-02-17T22:09:13.673Z,11.34
2023-02-17T22:11:43.117Z,11.60
2023-02-17T22:14:16.758Z,11.31
2023-02-17T22:16:46.645Z,11.11
2023-02-17T22:19:23.445Z,11.64
2023-02-17T22:21:52.119Z,11.90
2023-02-17T22:24:27.330Z,12.15
2023-02-17T22:26:55.750Z,11.99
2023-02-17T22:29:23.631Z,12.06
2023-02-17T22:31:56.013Z,11.75
2023-02-17T22:34:26.296Z,12.12
2023-02-17T22:36:54.258Z,12.03
2023-02-17T22:39:22.187Z,12.19
2023-02-17T22:41:50.615Z,12.03
2023-02-17T22:44:18.651Z,12.32
2023-02-17T22:46:46.685Z,12.65
2023-02-17T22:49:15.034Z,12.46
2023-02-17T22:51:43.033Z,12.17
2023-02-17T22:54:11.121Z,12.62
2023-02-17T22:56:39.520Z,12.65
2023-02-17T22:59:07.652Z,12.39
2023-02-17T23:01:36.971Z,12.52
2023-02-17T23:04:05.930Z,12.61
2023-02-17T23:06:36.054Z,12.86
2023-02-17T23:09:05.918Z,13.12
2023-02-17T23:11:54.124Z,13.02
2023-02-17T23:14:29.512Z,12.60
2023-02-17T23:17:01.587Z,12.79
2023-02-17T23:19:30.429Z,12.81
2023-02-17T23:22:01.840Z,12.50
2023-02-17T23:24:29.884Z,12.48
2023-02-17T23:27:00.478Z,12.78
2023-02-17T23:29:29.598Z,12.92
2023-02-17T23:31:57.792Z,12.87
2023-02-17T23:34:26.604Z,13.07
2023-02-17T23:36:54.779Z,12.75
2023-02-17T23:39:23.122Z,12.24
2023-02-17T23:41:51.420Z,12.45
2023-02-17T23:44:19.412Z,12.86
2023-02-17T23:46:47.403Z,11.92
2023-02-17T23:49:16.811Z,12.41
2023-02-17T23:51:47.057Z,12.59
2023-02-17T23:54:15.949Z,12.14
2023-02-17T23:56:44.371Z,12.01
2023-02-17T23:59:12.444Z,12.30
